sensor_id;sensor_type;location;lat;lon;timestamp;P1;durP1;ratioP1;P2;durP2;ratioP2
77168;SDS011;66281;45.114;20.730;2023-03-03T00:02:44;20.17;;;11.35;;
77168;SDS011;66281;45.114;20.730;2023-03-03T00:12:46;22.17;;;13.00;;
77168;SDS011;66281;45.114;20.730;2023-03-03T00:22:48;23.43;;;12.37;;
77168;SDS011;66281;45.114;20.730;2023-03-03T00:32:48;24.23;;;12.23;;
77168;SDS011;66281;45.114;20.730;2023-03-03T00:42:50;25.40;;;11.40;;
77168;SDS011;66281;45.114;20.730;2023-03-03T01:03:12;24.10;;;12.30;;
77168;SDS011;66281;45.114;20.730;2023-03-03T01:13:25;31.60;;;16.23;;
77168;SDS011;66281;45.114;20.730;2023-03-03T01:23:27;31.03;;;14.30;;
77168;SDS011;66281;45.114;20.730;2023-03-03T01:33:27;28.00;;;13.40;;
77168;SDS011;66281;45.114;20.730;2023-03-03T01:43:29;27.70;;;14.63;;
77168;SDS011;66281;45.114;20.730;2023-03-03T01:53:50;22.55;;;12.55;;
77168;SDS011;66281;45.114;20.730;2023-03-03T02:03:52;26.37;;;13.57;;
77168;SDS011;66281;45.114;20.730;2023-03-03T02:13:53;25.43;;;13.30;;
77168;SDS011;66281;45.114;20.730;2023-03-03T02:34:15;37.67;;;17.02;;
77168;SDS011;66281;45.114;20.730;2023-03-03T02:44:17;38.10;;;18.00;;
77168;SDS011;66281;45.114;20.730;2023-03-03T02:54:20;42.70;;;18.85;;
77168;SDS011;66281;45.114;20.730;2023-03-03T03:04:26;40.73;;;17.43;;
77168;SDS011;66281;45.114;20.730;2023-03-03T03:14:27;37.47;;;16.77;;
77168;SDS011;66281;45.114;20.730;2023-03-03T03:24:29;33.95;;;13.82;;
77168;SDS011;66281;45.114;20.730;2023-03-03T03:34:35;29.13;;;13.87;;
77168;SDS011;66281;45.114;20.730;2023-03-03T03:44:37;28.10;;;15.63;;
77168;SDS011;66281;45.114;20.730;2023-03-03T03:54:38;26.77;;;13.63;;
77168;SDS011;66281;45.114;20.730;2023-03-03T04:04:39;31.57;;;14.10;;
77168;SDS011;66281;45.114;20.730;2023-03-03T04:14:40;28.60;;;14.35;;
77168;SDS011;66281;45.114;20.730;2023-03-03T04:24:41;23.87;;;13.23;;
77168;SDS011;66281;45.114;20.730;2023-03-03T04:34:43;27.83;;;14.63;;
77168;SDS011;66281;45.114;20.730;2023-03-03T04:44:44;39.03;;;17.43;;
77168;SDS011;66281;45.114;20.730;2023-03-03T04:54:44;42.37;;;20.90;;
77168;SDS011;66281;45.114;20.730;2023-03-03T05:04:45;47.87;;;24.80;;
77168;SDS011;66281;45.114;20.730;2023-03-03T05:14:45;79.82;;;38.20;;
77168;SDS011;66281;45.114;20.730;2023-03-03T05:24:46;80.53;;;32.05;;
77168;SDS011;66281;45.114;20.730;2023-03-03T05:34:46;48.80;;;22.55;;
77168;SDS011;66281;45.114;20.730;2023-03-03T05:44:47;35.07;;;17.03;;
77168;SDS011;66281;45.114;20.730;2023-03-03T05:54:47;42.75;;;21.08;;
77168;SDS011;66281;45.114;20.730;2023-03-03T06:04:48;78.30;;;42.00;;
77168;SDS011;66281;45.114;20.730;2023-03-03T06:14:48;48.00;;;24.70;;
77168;SDS011;66281;45.114;20.730;2023-03-03T06:24:48;44.33;;;22.73;;
77168;SDS011;66281;45.114;20.730;2023-03-03T06:34:49;49.38;;;23.67;;
77168;SDS011;66281;45.114;20.730;2023-03-03T06:44:49;51.97;;;26.38;;
77168;SDS011;66281;45.114;20.730;2023-03-03T06:54:54;42.43;;;21.33;;
77168;SDS011;66281;45.114;20.730;2023-03-03T07:04:56;49.20;;;22.97;;
77168;SDS011;66281;45.114;20.730;2023-03-03T07:25:33;45.00;;;21.10;;
77168;SDS011;66281;45.114;20.730;2023-03-03T07:35:38;38.37;;;18.60;;
77168;SDS011;66281;45.114;20.730;2023-03-03T07:45:42;42.07;;;19.83;;
77168;SDS011;66281;45.114;20.730;2023-03-03T07:55:43;32.05;;;16.35;;
77168;SDS011;66281;45.114;20.730;2023-03-03T08:05:45;35.00;;;16.95;;
77168;SDS011;66281;45.114;20.730;2023-03-03T08:15:58;34.47;;;18.30;;
77168;SDS011;66281;45.114;20.730;2023-03-03T08:26:01;54.75;;;31.05;;
77168;SDS011;66281;45.114;20.730;2023-03-03T08:36:01;38.77;;;20.47;;
77168;SDS011;66281;45.114;20.730;2023-03-03T08:46:03;104.63;;;52.92;;
77168;SDS011;66281;45.114;20.730;2023-03-03T08:56:05;32.35;;;17.52;;
77168;SDS011;66281;45.114;20.730;2023-03-03T09:06:05;32.83;;;17.03;;
77168;SDS011;66281;45.114;20.730;2023-03-03T09:16:13;29.90;;;14.77;;
77168;SDS011;66281;45.114;20.730;2023-03-03T09:26:27;25.17;;;13.63;;
77168;SDS011;66281;45.114;20.730;2023-03-03T09:36:35;37.23;;;15.73;;
77168;SDS011;66281;45.114;20.730;2023-03-03T09:47:00;29.05;;;14.50;;
77168;SDS011;66281;45.114;20.730;2023-03-03T09:57:15;28.17;;;13.87;;
77168;SDS011;66281;45.114;20.730;2023-03-03T10:07:26;23.43;;;13.30;;
77168;SDS011;66281;45.114;20.730;2023-03-03T10:38:18;24.67;;;12.57;;
77168;SDS011;66281;45.114;20.730;2023-03-03T10:58:58;23.23;;;12.25;;
77168;SDS011;66281;45.114;20.730;2023-03-03T11:09:10;28.57;;;13.83;;
77168;SDS011;66281;45.114;20.730;2023-03-03T11:40:12;65.20;;;27.10;;
77168;SDS011;66281;45.114;20.730;2023-03-03T12:31:20;26.07;;;14.77;;
77168;SDS011;66281;45.114;20.730;2023-03-03T13:22:50;24.13;;;11.35;;
77168;SDS011;66281;45.114;20.730;2023-03-03T13:33:18;25.67;;;13.50;;
77168;SDS011;66281;45.114;20.730;2023-03-03T13:43:28;25.73;;;13.10;;
77168;SDS011;66281;45.114;20.730;2023-03-03T13:53:52;22.07;;;13.03;;
77168;SDS011;66281;45.114;20.730;2023-03-03T14:24:43;95.33;;;36.73;;
77168;SDS011;66281;45.114;20.730;2023-03-03T14:35:00;83.17;;;30.53;;
77168;SDS011;66281;45.114;20.730;2023-03-03T14:45:01;35.80;;;17.35;;
77168;SDS011;66281;45.114;20.730;2023-03-03T14:55:32;43.33;;;26.73;;
77168;SDS011;66281;45.114;20.730;2023-03-03T15:05:35;30.13;;;18.10;;
77168;SDS011;66281;45.114;20.730;2023-03-03T15:15:36;33.30;;;18.67;;
77168;SDS011;66281;45.114;20.730;2023-03-03T15:57:26;34.53;;;18.17;;
77168;SDS011;66281;45.114;20.730;2023-03-03T16:18:18;36.03;;;18.43;;
77168;SDS011;66281;45.114;20.730;2023-03-03T16:38:51;36.10;;;17.70;;
77168;SDS011;66281;45.114;20.730;2023-03-03T16:49:00;56.60;;;28.03;;
77168;SDS011;66281;45.114;20.730;2023-03-03T17:30:37;126.88;;;48.65;;
77168;SDS011;66281;45.114;20.730;2023-03-03T18:01:21;281.00;;;95.55;;
77168;SDS011;66281;45.114;20.730;2023-03-03T18:11:33;272.93;;;92.13;;
77168;SDS011;66281;45.114;20.730;2023-03-03T18:42:04;230.43;;;86.23;;
77168;SDS011;66281;45.114;20.730;2023-03-03T18:52:25;202.73;;;79.93;;
77168;SDS011;66281;45.114;20.730;2023-03-03T19:02:33;167.70;;;71.37;;
77168;SDS011;66281;45.114;20.730;2023-03-03T19:23:11;204.45;;;91.50;;
77168;SDS011;66281;45.114;20.730;2023-03-03T19:33:32;223.27;;;100.70;;
77168;SDS011;66281;45.114;20.730;2023-03-03T19:54:13;120.47;;;56.53;;
77168;SDS011;66281;45.114;20.730;2023-03-03T20:04:24;91.03;;;38.20;;
77168;SDS011;66281;45.114;20.730;2023-03-03T20:14:46;70.23;;;36.03;;
77168;SDS011;66281;45.114;20.730;2023-03-03T20:24:57;70.28;;;36.30;;
77168;SDS011;66281;45.114;20.730;2023-03-03T20:45:40;175.67;;;63.47;;
77168;SDS011;66281;45.114;20.730;2023-03-03T21:05:55;84.23;;;36.13;;
77168;SDS011;66281;45.114;20.730;2023-03-03T21:16:11;112.73;;;43.73;;
77168;SDS011;66281;45.114;20.730;2023-03-03T21:36:46;104.80;;;38.23;;
77168;SDS011;66281;45.114;20.730;2023-03-03T21:46:47;94.13;;;35.80;;
77168;SDS011;66281;45.114;20.730;2023-03-03T21:56:48;93.32;;;37.92;;
77168;SDS011;66281;45.114;20.730;2023-03-03T22:06:48;111.55;;;41.70;;
77168;SDS011;66281;45.114;20.730;2023-03-03T22:16:49;96.30;;;38.78;;
77168;SDS011;66281;45.114;20.730;2023-03-03T22:26:49;91.70;;;35.40;;
77168;SDS011;66281;45.114;20.730;2023-03-03T22:36:50;90.72;;;34.47;;
77168;SDS011;66281;45.114;20.730;2023-03-03T22:46:50;82.70;;;36.07;;
77168;SDS011;66281;45.114;20.730;2023-03-03T22:56:50;90.45;;;36.55;;
77168;SDS011;66281;45.114;20.730;2023-03-03T23:06:51;92.75;;;36.47;;
77168;SDS011;66281;45.114;20.730;2023-03-03T23:16:51;90.90;;;38.63;;
77168;SDS011;66281;45.114;20.730;2023-03-03T23:26:52;89.93;;;36.65;;
77168;SDS011;66281;45.114;20.730;2023-03-03T23:36:52;98.65;;;39.45;;
77168;SDS011;66281;45.114;20.730;2023-03-03T23:46:53;101.63;;;38.53;;
77168;SDS011;66281;45.114;20.730;2023-03-03T23:56:53;86.27;;;38.27;;
